sensor_id;sensor_type;location;lat;lon;timestamp;temperature;humidity
12578;DHT22;6354;51.026;8.968;2022-10-16T00:01:07;15.30;99.90
12578;DHT22;6354;51.026;8.968;2022-10-16T00:03:35;15.20;99.90
12578;DHT22;6354;51.026;8.968;2022-10-16T00:06:04;15.20;99.90
12578;DHT22;6354;51.026;8.968;2022-10-16T00:08:33;15.20;99.90
12578;DHT22;6354;51.026;8.968;2022-10-16T00:11:04;15.20;99.90
12578;DHT22;6354;51.026;8.968;2022-10-16T00:13:34;15.20;99.90
12578;DHT22;6354;51.026;8.968;2022-10-16T00:16:04;15.20;99.90
12578;DHT22;6354;51.026;8.968;2022-10-16T00:18:33;15.20;99.90
12578;DHT22;6354;51.026;8.968;2022-10-16T00:21:06;15.20;99.90
12578;DHT22;6354;51.026;8.968;2022-10-16T00:23:34;15.20;99.90
12578;DHT22;6354;51.026;8.968;2022-10-16T00:26:06;15.20;99.90
12578;DHT22;6354;51.026;8.968;2022-10-16T00:28:35;15.20;99.90
12578;DHT22;6354;51.026;8.968;2022-10-16T00:31:06;15.30;99.90
12578;DHT22;6354;51.026;8.968;2022-10-16T00:33:35;15.30;99.90
12578;DHT22;6354;51.026;8.968;2022-10-16T00:36:05;15.30;99.90
12578;DHT22;6354;51.026;8.968;2022-10-16T00:38:33;15.30;99.90
12578;DHT22;6354;51.026;8.968;2022-10-16T00:41:02;15.20;99.90
12578;DHT22;6354;51.026;8.968;2022-10-16T00:43:36;15.20;99.90
12578;DHT22;6354;51.026;8.968;2022-10-16T00:46:13;15.20;99.90
12578;DHT22;6354;51.026;8.968;2022-10-16T00:48:47;15.20;99.90
12578;DHT22;6354;51.026;8.968;2022-10-16T00:51:17;15.10;99.90
12578;DHT22;6354;51.026;8.968;2022-10-16T00:53:47;15.10;99.90
12578;DHT22;6354;51.026;8.968;2022-10-16T00:56:16;15.10;99.90
12578;DHT22;6354;51.026;8.968;2022-10-16T00:58:44;15.10;99.90
12578;DHT22;6354;51.026;8.968;2022-10-16T01:01:14;15.10;99.90
12578;DHT22;6354;51.026;8.968;2022-10-16T01:03:42;15.20;99.90
12578;DHT22;6354;51.026;8.968;2022-10-16T01:06:23;15.20;99.90
12578;DHT22;6354;51.026;8.968;2022-10-16T01:11:51;15.10;99.90
12578;DHT22;6354;51.026;8.968;2022-10-16T01:14:28;15.10;99.90
12578;DHT22;6354;51.026;8.968;2022-10-16T01:17:01;15.10;99.90
12578;DHT22;6354;51.026;8.968;2022-10-16T01:19:44;15.10;99.90
12578;DHT22;6354;51.026;8.968;2022-10-16T01:22:18;15.10;99.90
12578;DHT22;6354;51.026;8.968;2022-10-16T01:24:49;15.10;99.90
12578;DHT22;6354;51.026;8.968;2022-10-16T01:27:20;15.10;99.90
12578;DHT22;6354;51.026;8.968;2022-10-16T01:29:53;15.10;99.90
12578;DHT22;6354;51.026;8.968;2022-10-16T01:32:28;15.10;99.90
12578;DHT22;6354;51.026;8.968;2022-10-16T01:35:02;15.10;99.90
12578;DHT22;6354;51.026;8.968;2022-10-16T01:37:36;15.10;99.90
12578;DHT22;6354;51.026;8.968;2022-10-16T01:40:09;15.10;99.90
12578;DHT22;6354;51.026;8.968;2022-10-16T01:42:42;15.10;99.90
12578;DHT22;6354;51.026;8.968;2022-10-16T01:45:15;15.10;99.90
12578;DHT22;6354;51.026;8.968;2022-10-16T01:47:45;15.10;99.90
12578;DHT22;6354;51.026;8.968;2022-10-16T01:50:16;15.10;99.90
12578;DHT22;6354;51.026;8.968;2022-10-16T01:52:48;15.10;99.90
12578;DHT22;6354;51.026;8.968;2022-10-16T01:55:20;15.10;99.90
12578;DHT22;6354;51.026;8.968;2022-10-16T01:57:52;15.10;99.90
12578;DHT22;6354;51.026;8.968;2022-10-16T02:00:22;15.10;99.90
12578;DHT22;6354;51.026;8.968;2022-10-16T02:02:53;15.10;99.90
12578;DHT22;6354;51.026;8.968;2022-10-16T02:05:25;15.10;99.90
12578;DHT22;6354;51.026;8.968;2022-10-16T02:07:54;15.00;99.90
12578;DHT22;6354;51.026;8.968;2022-10-16T02:10:26;15.00;99.90
12578;DHT22;6354;51.026;8.968;2022-10-16T02:13:04;15.00;99.90
12578;DHT22;6354;51.026;8.968;2022-10-16T02:15:34;15.00;99.90
12578;DHT22;6354;51.026;8.968;2022-10-16T02:18:02;15.00;99.90
12578;DHT22;6354;51.026;8.968;2022-10-16T02:20:34;15.00;99.90
12578;DHT22;6354;51.026;8.968;2022-10-16T02:23:04;15.00;99.90
12578;DHT22;6354;51.026;8.968;2022-10-16T02:25:37;15.00;99.90
12578;DHT22;6354;51.026;8.968;2022-10-16T02:28:11;15.00;99.90
12578;DHT22;6354;51.026;8.968;2022-10-16T02:30:43;15.00;99.90
12578;DHT22;6354;51.026;8.968;2022-10-16T02:33:14;15.00;99.90
12578;DHT22;6354;51.026;8.968;2022-10-16T02:35:44;15.00;99.90
12578;DHT22;6354;51.026;8.968;2022-10-16T02:38:14;15.00;99.90
12578;DHT22;6354;51.026;8.968;2022-10-16T02:40:43;15.00;99.90
12578;DHT22;6354;51.026;8.968;2022-10-16T02:43:12;15.10;99.90
12578;DHT22;6354;51.026;8.968;2022-10-16T02:45:40;15.10;99.90
12578;DHT22;6354;51.026;8.968;2022-10-16T02:48:08;15.10;99.90
12578;DHT22;6354;51.026;8.968;2022-10-16T02:50:37;15.10;99.90
12578;DHT22;6354;51.026;8.968;2022-10-16T02:53:05;15.10;99.90
12578;DHT22;6354;51.026;8.968;2022-10-16T02:55:33;15.10;99.90
12578;DHT22;6354;51.026;8.968;2022-10-16T02:58:01;15.10;99.90
12578;DHT22;6354;51.026;8.968;2022-10-16T03:00:30;15.10;99.90
12578;DHT22;6354;51.026;8.968;2022-10-16T03:02:58;15.10;99.90
12578;DHT22;6354;51.026;8.968;2022-10-16T03:05:26;15.10;99.90
12578;DHT22;6354;51.026;8.968;2022-10-16T03:07:54;15.10;99.90
12578;DHT22;6354;51.026;8.968;2022-10-16T03:10:22;15.10;99.90
12578;DHT22;6354;51.026;8.968;2022-10-16T03:12:50;15.10;99.90
12578;DHT22;6354;51.026;8.968;2022-10-16T03:15:18;15.10;99.90
12578;DHT22;6354;51.026;8.968;2022-10-16T03:17:48;15.10;99.90
12578;DHT22;6354;51.026;8.968;2022-10-16T03:20:16;15.10;99.90
12578;DHT22;6354;51.026;8.968;2022-10-16T03:22:44;15.00;99.90
12578;DHT22;6354;51.026;8.968;2022-10-16T03:25:12;15.10;99.90
12578;DHT22;6354;51.026;8.968;2022-10-16T03:27:40;15.00;99.90
12578;DHT22;6354;51.026;8.968;2022-10-16T03:30:09;15.00;99.90
12578;DHT22;6354;51.026;8.968;2022-10-16T03:32:37;14.90;99.90
12578;DHT22;6354;51.026;8.968;2022-10-16T03:35:07;14.90;99.90
12578;DHT22;6354;51.026;8.968;2022-10-16T03:37:35;14.90;99.90
12578;DHT22;6354;51.026;8.968;2022-10-16T03:40:04;14.90;99.90
12578;DHT22;6354;51.026;8.968;2022-10-16T03:42:32;14.90;99.90
12578;DHT22;6354;51.026;8.968;2022-10-16T03:45:00;14.90;99.90
12578;DHT22;6354;51.026;8.968;2022-10-16T03:47:29;14.90;99.90
12578;DHT22;6354;51.026;8.968;2022-10-16T03:49:59;14.80;99.90
12578;DHT22;6354;51.026;8.968;2022-10-16T03:52:29;14.80;99.90
12578;DHT22;6354;51.026;8.968;2022-10-16T03:54:57;14.80;99.90
12578;DHT22;6354;51.026;8.968;2022-10-16T03:57:25;14.70;99.90
12578;DHT22;6354;51.026;8.968;2022-10-16T03:59:53;14.70;99.90
12578;DHT22;6354;51.026;8.968;2022-10-16T04:02:22;14.70;99.90
12578;DHT22;6354;51.026;8.968;2022-10-16T04:04:50;14.70;99.90
12578;DHT22;6354;51.026;8.968;2022-10-16T04:07:18;14.70;99.90
12578;DHT22;6354;51.026;8.968;2022-10-16T04:09:47;14.70;99.90
12578;DHT22;6354;51.026;8.968;2022-10-16T04:12:15;14.60;99.90
12578;DHT22;6354;51.026;8.968;2022-10-16T04:14:43;14.60;99.90
12578;DHT22;6354;51.026;8.968;2022-10-16T04:17:11;14.60;99.90
12578;DHT22;6354;51.026;8.968;2022-10-16T04:19:39;14.60;99.90
12578;DHT22;6354;51.026;8.968;2022-10-16T04:22:07;14.60;99.90
12578;DHT22;6354;51.026;8.968;2022-10-16T04:24:35;14.60;99.90
12578;DHT22;6354;51.026;8.968;2022-10-16T04:27:05;14.50;99.90
12578;DHT22;6354;51.026;8.968;2022-10-16T04:29:33;14.50;99.90
12578;DHT22;6354;51.026;8.968;2022-10-16T04:32:01;14.50;99.90
12578;DHT22;6354;51.026;8.968;2022-10-16T04:34:29;14.50;99.90
12578;DHT22;6354;51.026;8.968;2022-10-16T04:36:57;14.50;99.90
12578;DHT22;6354;51.026;8.968;2022-10-16T04:39:25;14.50;99.90
12578;DHT22;6354;51.026;8.968;2022-10-16T04:41:53;14.50;99.90
12578;DHT22;6354;51.026;8.968;2022-10-16T04:44:22;14.50;99.90
12578;DHT22;6354;51.026;8.968;2022-10-16T04:46:50;14.50;99.90
12578;DHT22;6354;51.026;8.968;2022-10-16T04:49:18;14.50;99.90
12578;DHT22;6354;51.026;8.968;2022-10-16T04:51:46;14.40;99.90
12578;DHT22;6354;51.026;8.968;2022-10-16T04:54:14;14.40;99.90
12578;DHT22;6354;51.026;8.968;2022-10-16T04:56:42;14.40;99.90
12578;DHT22;6354;51.026;8.968;2022-10-16T04:59:14;14.30;99.90
12578;DHT22;6354;51.026;8.968;2022-10-16T05:01:43;14.30;99.90
12578;DHT22;6354;51.026;8.968;2022-10-16T05:04:12;14.30;99.90
12578;DHT22;6354;51.026;8.968;2022-10-16T05:06:42;14.30;99.90
12578;DHT22;6354;51.026;8.968;2022-10-16T05:09:10;14.20;99.90
12578;DHT22;6354;51.026;8.968;2022-10-16T05:11:38;14.20;99.90
12578;DHT22;6354;51.026;8.968;2022-10-16T05:14:06;14.20;99.90
12578;DHT22;6354;51.026;8.968;2022-10-16T05:16:34;14.10;99.90
12578;DHT22;6354;51.026;8.968;2022-10-16T05:19:04;14.10;99.90
12578;DHT22;6354;51.026;8.968;2022-10-16T05:21:52;14.20;99.90
12578;DHT22;6354;51.026;8.968;2022-10-16T05:24:20;14.20;99.90
12578;DHT22;6354;51.026;8.968;2022-10-16T05:26:48;14.20;99.90
12578;DHT22;6354;51.026;8.968;2022-10-16T05:29:16;14.20;99.90
12578;DHT22;6354;51.026;8.968;2022-10-16T05:31:44;14.20;99.90
12578;DHT22;6354;51.026;8.968;2022-10-16T05:34:13;14.20;99.90
12578;DHT22;6354;51.026;8.968;2022-10-16T05:36:41;14.20;99.90
12578;DHT22;6354;51.026;8.968;2022-10-16T05:39:13;14.20;99.90
12578;DHT22;6354;51.026;8.968;2022-10-16T05:41:41;14.20;99.90
12578;DHT22;6354;51.026;8.968;2022-10-16T05:44:10;14.20;99.90
12578;DHT22;6354;51.026;8.968;2022-10-16T05:46:38;14.20;99.90
12578;DHT22;6354;51.026;8.968;2022-10-16T05:49:06;14.10;99.90
12578;DHT22;6354;51.026;8.968;2022-10-16T05:51:35;14.10;99.90
12578;DHT22;6354;51.026;8.968;2022-10-16T05:54:03;14.10;99.90
12578;DHT22;6354;51.026;8.968;2022-10-16T05:56:31;14.10;99.90
12578;DHT22;6354;51.026;8.968;2022-10-16T05:58:59;14.10;99.90
12578;DHT22;6354;51.026;8.968;2022-10-16T06:01:27;14.10;99.90
12578;DHT22;6354;51.026;8.968;2022-10-16T06:03:56;14.10;99.90
12578;DHT22;6354;51.026;8.968;2022-10-16T06:06:26;14.10;99.90
12578;DHT22;6354;51.026;8.968;2022-10-16T06:08:57;14.10;99.90
12578;DHT22;6354;51.026;8.968;2022-10-16T06:11:27;14.00;99.90
12578;DHT22;6354;51.026;8.968;2022-10-16T06:13:57;13.90;99.90
12578;DHT22;6354;51.026;8.968;2022-10-16T06:16:26;13.90;99.90
12578;DHT22;6354;51.026;8.968;2022-10-16T06:18:55;13.90;99.90
12578;DHT22;6354;51.026;8.968;2022-10-16T06:21:25;13.90;99.90
12578;DHT22;6354;51.026;8.968;2022-10-16T06:23:53;13.90;99.90
12578;DHT22;6354;51.026;8.968;2022-10-16T06:26:25;13.90;99.90
12578;DHT22;6354;51.026;8.968;2022-10-16T06:28:54;14.00;99.90
12578;DHT22;6354;51.026;8.968;2022-10-16T06:31:22;13.90;99.90
12578;DHT22;6354;51.026;8.968;2022-10-16T06:33:54;14.00;99.90
12578;DHT22;6354;51.026;8.968;2022-10-16T06:36:23;14.00;99.90
12578;DHT22;6354;51.026;8.968;2022-10-16T06:38:52;14.00;99.90
12578;DHT22;6354;51.026;8.968;2022-10-16T06:41:21;14.00;99.90
12578;DHT22;6354;51.026;8.968;2022-10-16T06:43:50;14.10;99.90
12578;DHT22;6354;51.026;8.968;2022-10-16T06:46:20;14.20;99.90
12578;DHT22;6354;51.026;8.968;2022-10-16T06:48:49;14.20;99.90
12578;DHT22;6354;51.026;8.968;2022-10-16T06:51:18;14.20;99.90
12578;DHT22;6354;51.026;8.968;2022-10-16T06:53:48;14.20;99.90
12578;DHT22;6354;51.026;8.968;2022-10-16T06:56:32;14.20;99.90
12578;DHT22;6354;51.026;8.968;2022-10-16T06:59:02;14.20;99.90
12578;DHT22;6354;51.026;8.968;2022-10-16T07:01:30;14.30;99.90
12578;DHT22;6354;51.026;8.968;2022-10-16T07:04:00;14.30;99.90
12578;DHT22;6354;51.026;8.968;2022-10-16T07:06:31;14.30;99.90
12578;DHT22;6354;51.026;8.968;2022-10-16T07:09:01;14.30;99.90
12578;DHT22;6354;51.026;8.968;2022-10-16T07:11:30;14.40;99.90
12578;DHT22;6354;51.026;8.968;2022-10-16T07:13:58;14.40;99.90
12578;DHT22;6354;51.026;8.968;2022-10-16T07:16:30;14.40;99.90
12578;DHT22;6354;51.026;8.968;2022-10-16T07:19:00;14.40;99.90
12578;DHT22;6354;51.026;8.968;2022-10-16T07:21:30;14.50;99.90
12578;DHT22;6354;51.026;8.968;2022-10-16T07:24:03;14.50;99.90
12578;DHT22;6354;51.026;8.968;2022-10-16T07:26:34;14.50;99.90
12578;DHT22;6354;51.026;8.968;2022-10-16T07:29:03;14.40;99.90
12578;DHT22;6354;51.026;8.968;2022-10-16T07:31:33;14.50;99.90
12578;DHT22;6354;51.026;8.968;2022-10-16T07:34:01;14.50;99.90
12578;DHT22;6354;51.026;8.968;2022-10-16T07:36:29;14.60;99.90
12578;DHT22;6354;51.026;8.968;2022-10-16T07:38:57;14.60;99.90
12578;DHT22;6354;51.026;8.968;2022-10-16T07:41:26;14.60;99.90
12578;DHT22;6354;51.026;8.968;2022-10-16T07:43:55;14.70;99.90
12578;DHT22;6354;51.026;8.968;2022-10-16T07:46:27;14.70;99.90
12578;DHT22;6354;51.026;8.968;2022-10-16T07:48:56;14.80;99.90
12578;DHT22;6354;51.026;8.968;2022-10-16T07:51:25;14.80;99.90
12578;DHT22;6354;51.026;8.968;2022-10-16T07:53:54;14.90;99.90
12578;DHT22;6354;51.026;8.968;2022-10-16T07:56:22;14.90;99.90
12578;DHT22;6354;51.026;8.968;2022-10-16T07:58:51;15.00;99.90
12578;DHT22;6354;51.026;8.968;2022-10-16T08:01:19;14.90;99.90
12578;DHT22;6354;51.026;8.968;2022-10-16T08:03:49;15.00;99.90
12578;DHT22;6354;51.026;8.968;2022-10-16T08:06:20;15.00;99.90
12578;DHT22;6354;51.026;8.968;2022-10-16T08:08:54;15.00;99.90
12578;DHT22;6354;51.026;8.968;2022-10-16T08:11:22;15.00;99.90
12578;DHT22;6354;51.026;8.968;2022-10-16T08:13:51;15.10;99.90
12578;DHT22;6354;51.026;8.968;2022-10-16T08:16:19;15.30;99.90
12578;DHT22;6354;51.026;8.968;2022-10-16T08:18:47;15.40;99.90
12578;DHT22;6354;51.026;8.968;2022-10-16T08:21:17;15.40;99.90
12578;DHT22;6354;51.026;8.968;2022-10-16T08:23:48;15.50;99.90
12578;DHT22;6354;51.026;8.968;2022-10-16T08:26:24;15.40;99.90
12578;DHT22;6354;51.026;8.968;2022-10-16T08:28:52;15.50;99.90
12578;DHT22;6354;51.026;8.968;2022-10-16T08:31:21;15.70;99.90
12578;DHT22;6354;51.026;8.968;2022-10-16T08:33:49;15.90;99.90
12578;DHT22;6354;51.026;8.968;2022-10-16T08:36:19;15.80;99.90
12578;DHT22;6354;51.026;8.968;2022-10-16T08:38:49;15.90;99.90
12578;DHT22;6354;51.026;8.968;2022-10-16T08:41:39;15.90;99.90
12578;DHT22;6354;51.026;8.968;2022-10-16T08:44:36;15.90;99.90
12578;DHT22;6354;51.026;8.968;2022-10-16T08:47:14;16.00;99.90
12578;DHT22;6354;51.026;8.968;2022-10-16T08:49:48;16.00;99.90
12578;DHT22;6354;51.026;8.968;2022-10-16T08:52:30;16.00;99.90
12578;DHT22;6354;51.026;8.968;2022-10-16T08:55:02;16.10;99.90
12578;DHT22;6354;51.026;8.968;2022-10-16T08:57:31;16.20;99.90
12578;DHT22;6354;51.026;8.968;2022-10-16T09:00:05;16.30;99.90
12578;DHT22;6354;51.026;8.968;2022-10-16T09:02:36;16.30;99.90
12578;DHT22;6354;51.026;8.968;2022-10-16T09:05:21;16.50;99.90
12578;DHT22;6354;51.026;8.968;2022-10-16T09:07:58;17.00;99.90
12578;DHT22;6354;51.026;8.968;2022-10-16T09:10:41;17.30;99.90
12578;DHT22;6354;51.026;8.968;2022-10-16T09:13:18;17.60;99.90
12578;DHT22;6354;51.026;8.968;2022-10-16T09:15:51;17.70;99.90
12578;DHT22;6354;51.026;8.968;2022-10-16T09:18:24;17.60;99.90
12578;DHT22;6354;51.026;8.968;2022-10-16T09:21:05;17.40;99.90
12578;DHT22;6354;51.026;8.968;2022-10-16T09:23:36;17.20;99.90
12578;DHT22;6354;51.026;8.968;2022-10-16T09:26:09;17.00;99.90
12578;DHT22;6354;51.026;8.968;2022-10-16T09:28:39;16.80;99.90
12578;DHT22;6354;51.026;8.968;2022-10-16T09:31:18;16.80;99.90
12578;DHT22;6354;51.026;8.968;2022-10-16T09:33:50;16.70;99.90
12578;DHT22;6354;51.026;8.968;2022-10-16T09:36:20;16.70;99.90
12578;DHT22;6354;51.026;8.968;2022-10-16T09:38:49;16.80;99.90
12578;DHT22;6354;51.026;8.968;2022-10-16T09:41:20;17.10;99.90
12578;DHT22;6354;51.026;8.968;2022-10-16T09:43:52;17.30;99.90
12578;DHT22;6354;51.026;8.968;2022-10-16T09:46:25;17.40;99.90
12578;DHT22;6354;51.026;8.968;2022-10-16T09:48:57;17.60;99.90
12578;DHT22;6354;51.026;8.968;2022-10-16T09:51:27;17.80;99.90
12578;DHT22;6354;51.026;8.968;2022-10-16T09:53:58;17.80;99.90
12578;DHT22;6354;51.026;8.968;2022-10-16T09:56:29;17.90;99.90
12578;DHT22;6354;51.026;8.968;2022-10-16T09:59:01;18.00;99.90
12578;DHT22;6354;51.026;8.968;2022-10-16T10:01:35;17.90;99.90
12578;DHT22;6354;51.026;8.968;2022-10-16T10:04:06;17.90;99.90
12578;DHT22;6354;51.026;8.968;2022-10-16T10:06:37;17.90;99.90
12578;DHT22;6354;51.026;8.968;2022-10-16T10:09:17;17.90;99.90
12578;DHT22;6354;51.026;8.968;2022-10-16T10:11:54;18.00;99.90
12578;DHT22;6354;51.026;8.968;2022-10-16T10:14:26;18.10;99.90
12578;DHT22;6354;51.026;8.968;2022-10-16T10:17:14;18.10;99.90
12578;DHT22;6354;51.026;8.968;2022-10-16T10:19:47;18.20;99.90
12578;DHT22;6354;51.026;8.968;2022-10-16T10:22:29;18.10;99.90
12578;DHT22;6354;51.026;8.968;2022-10-16T10:25:07;17.90;99.90
12578;DHT22;6354;51.026;8.968;2022-10-16T10:27:48;17.70;99.90
12578;DHT22;6354;51.026;8.968;2022-10-16T10:30:24;17.80;99.90
12578;DHT22;6354;51.026;8.968;2022-10-16T10:33:07;17.80;99.90
12578;DHT22;6354;51.026;8.968;2022-10-16T10:35:44;17.80;99.90
12578;DHT22;6354;51.026;8.968;2022-10-16T10:38:22;18.00;99.90
12578;DHT22;6354;51.026;8.968;2022-10-16T10:41:00;18.10;99.90
12578;DHT22;6354;51.026;8.968;2022-10-16T10:43:43;18.00;99.90
12578;DHT22;6354;51.026;8.968;2022-10-16T10:46:20;18.00;99.90
12578;DHT22;6354;51.026;8.968;2022-10-16T10:49:03;18.00;99.90
12578;DHT22;6354;51.026;8.968;2022-10-16T10:51:42;18.00;99.90
12578;DHT22;6354;51.026;8.968;2022-10-16T10:54:20;18.00;99.90
12578;DHT22;6354;51.026;8.968;2022-10-16T10:56:58;18.00;99.90
12578;DHT22;6354;51.026;8.968;2022-10-16T10:59:39;18.20;99.90
12578;DHT22;6354;51.026;8.968;2022-10-16T11:02:16;18.30;99.90
12578;DHT22;6354;51.026;8.968;2022-10-16T11:05:01;18.40;99.90
12578;DHT22;6354;51.026;8.968;2022-10-16T11:07:36;18.30;99.90
12578;DHT22;6354;51.026;8.968;2022-10-16T11:10:12;18.30;99.90
12578;DHT22;6354;51.026;8.968;2022-10-16T11:12:44;18.30;99.90
12578;DHT22;6354;51.026;8.968;2022-10-16T11:15:18;18.20;99.90
12578;DHT22;6354;51.026;8.968;2022-10-16T11:17:50;18.20;99.90
12578;DHT22;6354;51.026;8.968;2022-10-16T11:20:23;18.20;99.90
12578;DHT22;6354;51.026;8.968;2022-10-16T11:22:56;18.30;99.90
12578;DHT22;6354;51.026;8.968;2022-10-16T11:25:27;18.40;99.90
12578;DHT22;6354;51.026;8.968;2022-10-16T11:31:48;18.70;99.90
12578;DHT22;6354;51.026;8.968;2022-10-16T11:34:22;18.80;99.90
12578;DHT22;6354;51.026;8.968;2022-10-16T11:36:56;18.70;99.90
12578;DHT22;6354;51.026;8.968;2022-10-16T11:39:27;18.70;99.90
12578;DHT22;6354;51.026;8.968;2022-10-16T11:42:01;18.80;99.90
12578;DHT22;6354;51.026;8.968;2022-10-16T11:44:43;18.80;99.90
12578;DHT22;6354;51.026;8.968;2022-10-16T11:47:24;18.80;99.90
12578;DHT22;6354;51.026;8.968;2022-10-16T11:50:20;18.70;99.90
12578;DHT22;6354;51.026;8.968;2022-10-16T11:52:55;18.70;99.90
12578;DHT22;6354;51.026;8.968;2022-10-16T11:55:30;18.60;99.90
12578;DHT22;6354;51.026;8.968;2022-10-16T11:58:02;18.40;99.90
12578;DHT22;6354;51.026;8.968;2022-10-16T12:00:38;18.30;99.90
12578;DHT22;6354;51.026;8.968;2022-10-16T12:03:15;18.30;99.90
12578;DHT22;6354;51.026;8.968;2022-10-16T12:05:55;18.20;99.90
12578;DHT22;6354;51.026;8.968;2022-10-16T12:08:25;18.10;99.90
12578;DHT22;6354;51.026;8.968;2022-10-16T12:11:06;18.10;99.90
12578;DHT22;6354;51.026;8.968;2022-10-16T12:13:36;18.20;99.90
12578;DHT22;6354;51.026;8.968;2022-10-16T12:16:21;18.10;99.90
12578;DHT22;6354;51.026;8.968;2022-10-16T12:19:08;18.10;99.90
12578;DHT22;6354;51.026;8.968;2022-10-16T12:21:37;18.00;99.90
12578;DHT22;6354;51.026;8.968;2022-10-16T12:24:06;18.00;99.90
12578;DHT22;6354;51.026;8.968;2022-10-16T12:26:37;18.20;99.90
12578;DHT22;6354;51.026;8.968;2022-10-16T12:29:17;18.30;99.90
12578;DHT22;6354;51.026;8.968;2022-10-16T12:31:50;18.40;99.90
12578;DHT22;6354;51.026;8.968;2022-10-16T12:34:29;18.60;99.90
12578;DHT22;6354;51.026;8.968;2022-10-16T12:37:09;18.70;99.90
12578;DHT22;6354;51.026;8.968;2022-10-16T12:39:37;18.70;99.90
12578;DHT22;6354;51.026;8.968;2022-10-16T12:42:20;18.70;99.90
12578;DHT22;6354;51.026;8.968;2022-10-16T12:44:48;18.70;99.90
12578;DHT22;6354;51.026;8.968;2022-10-16T12:47:22;18.70;99.90
12578;DHT22;6354;51.026;8.968;2022-10-16T12:49:54;18.70;99.90
12578;DHT22;6354;51.026;8.968;2022-10-16T12:52:27;18.60;99.90
12578;DHT22;6354;51.026;8.968;2022-10-16T12:54:57;18.60;99.90
12578;DHT22;6354;51.026;8.968;2022-10-16T12:57:38;18.70;99.90
12578;DHT22;6354;51.026;8.968;2022-10-16T13:00:17;18.60;99.90
12578;DHT22;6354;51.026;8.968;2022-10-16T13:06:03;18.70;99.90
12578;DHT22;6354;51.026;8.968;2022-10-16T13:08:46;18.50;99.90
12578;DHT22;6354;51.026;8.968;2022-10-16T13:11:22;18.60;99.90
12578;DHT22;6354;51.026;8.968;2022-10-16T13:14:05;18.50;99.90
12578;DHT22;6354;51.026;8.968;2022-10-16T13:16:46;18.50;99.90
12578;DHT22;6354;51.026;8.968;2022-10-16T13:19:23;18.50;99.90
12578;DHT22;6354;51.026;8.968;2022-10-16T13:22:01;18.50;99.90
12578;DHT22;6354;51.026;8.968;2022-10-16T13:24:45;18.70;99.90
12578;DHT22;6354;51.026;8.968;2022-10-16T13:27:25;18.90;99.90
12578;DHT22;6354;51.026;8.968;2022-10-16T13:30:01;19.00;99.90
12578;DHT22;6354;51.026;8.968;2022-10-16T13:32:30;19.00;99.90
12578;DHT22;6354;51.026;8.968;2022-10-16T13:34:58;18.90;99.90
12578;DHT22;6354;51.026;8.968;2022-10-16T13:37:29;18.90;99.90
12578;DHT22;6354;51.026;8.968;2022-10-16T13:40:11;18.80;99.90
12578;DHT22;6354;51.026;8.968;2022-10-16T13:42:45;18.80;99.90
12578;DHT22;6354;51.026;8.968;2022-10-16T13:45:21;18.60;99.90
12578;DHT22;6354;51.026;8.968;2022-10-16T13:47:49;18.60;99.90
12578;DHT22;6354;51.026;8.968;2022-10-16T13:50:18;18.50;99.90
12578;DHT22;6354;51.026;8.968;2022-10-16T13:52:47;18.50;99.90
12578;DHT22;6354;51.026;8.968;2022-10-16T13:55:17;18.50;99.90
12578;DHT22;6354;51.026;8.968;2022-10-16T13:57:46;18.30;99.90
12578;DHT22;6354;51.026;8.968;2022-10-16T14:00:23;18.40;99.90
12578;DHT22;6354;51.026;8.968;2022-10-16T14:02:53;18.40;99.90
12578;DHT22;6354;51.026;8.968;2022-10-16T14:05:23;18.30;99.90
12578;DHT22;6354;51.026;8.968;2022-10-16T14:07:54;18.30;99.90
12578;DHT22;6354;51.026;8.968;2022-10-16T14:10:24;18.20;99.90
12578;DHT22;6354;51.026;8.968;2022-10-16T14:12:57;18.20;99.90
12578;DHT22;6354;51.026;8.968;2022-10-16T14:15:26;18.20;99.90
12578;DHT22;6354;51.026;8.968;2022-10-16T14:17:55;18.20;99.90
12578;DHT22;6354;51.026;8.968;2022-10-16T14:20:27;18.20;99.90
12578;DHT22;6354;51.026;8.968;2022-10-16T14:23:04;18.20;99.90
12578;DHT22;6354;51.026;8.968;2022-10-16T14:25:32;18.10;99.90
12578;DHT22;6354;51.026;8.968;2022-10-16T14:28:03;18.10;99.90
12578;DHT22;6354;51.026;8.968;2022-10-16T14:30:32;18.20;99.90
12578;DHT22;6354;51.026;8.968;2022-10-16T14:33:03;18.20;99.90
12578;DHT22;6354;51.026;8.968;2022-10-16T14:35:33;18.20;99.90
12578;DHT22;6354;51.026;8.968;2022-10-16T14:38:05;18.20;99.90
12578;DHT22;6354;51.026;8.968;2022-10-16T14:40:35;18.20;99.90
12578;DHT22;6354;51.026;8.968;2022-10-16T14:43:04;18.20;99.90
12578;DHT22;6354;51.026;8.968;2022-10-16T14:45:34;18.20;99.90
12578;DHT22;6354;51.026;8.968;2022-10-16T14:48:06;18.30;99.90
12578;DHT22;6354;51.026;8.968;2022-10-16T14:50:45;18.30;99.90
12578;DHT22;6354;51.026;8.968;2022-10-16T14:53:15;18.20;99.90
12578;DHT22;6354;51.026;8.968;2022-10-16T14:55:43;18.20;99.90
12578;DHT22;6354;51.026;8.968;2022-10-16T14:58:14;18.10;99.90
12578;DHT22;6354;51.026;8.968;2022-10-16T15:00:42;18.10;99.90
12578;DHT22;6354;51.026;8.968;2022-10-16T15:03:11;18.00;99.90
12578;DHT22;6354;51.026;8.968;2022-10-16T15:05:39;18.00;99.90
12578;DHT22;6354;51.026;8.968;2022-10-16T15:08:07;18.00;99.90
12578;DHT22;6354;51.026;8.968;2022-10-16T15:10:40;17.90;99.90
12578;DHT22;6354;51.026;8.968;2022-10-16T15:13:11;17.90;99.90
12578;DHT22;6354;51.026;8.968;2022-10-16T15:15:42;17.90;99.90
12578;DHT22;6354;51.026;8.968;2022-10-16T15:18:11;17.80;99.90
12578;DHT22;6354;51.026;8.968;2022-10-16T15:20:41;17.80;99.90
12578;DHT22;6354;51.026;8.968;2022-10-16T15:23:13;17.70;99.90
12578;DHT22;6354;51.026;8.968;2022-10-16T15:25:45;17.70;99.90
12578;DHT22;6354;51.026;8.968;2022-10-16T15:28:15;17.60;99.90
12578;DHT22;6354;51.026;8.968;2022-10-16T15:30:43;17.60;99.90
12578;DHT22;6354;51.026;8.968;2022-10-16T15:33:14;17.50;99.90
12578;DHT22;6354;51.026;8.968;2022-10-16T15:35:46;17.50;99.90
12578;DHT22;6354;51.026;8.968;2022-10-16T15:38:15;17.40;99.90
12578;DHT22;6354;51.026;8.968;2022-10-16T15:40:46;17.40;99.90
12578;DHT22;6354;51.026;8.968;2022-10-16T15:43:14;17.40;99.90
12578;DHT22;6354;51.026;8.968;2022-10-16T15:45:42;17.30;99.90
12578;DHT22;6354;51.026;8.968;2022-10-16T15:48:11;17.30;99.90
12578;DHT22;6354;51.026;8.968;2022-10-16T15:50:40;17.20;99.90
12578;DHT22;6354;51.026;8.968;2022-10-16T15:53:10;17.20;99.90
12578;DHT22;6354;51.026;8.968;2022-10-16T15:55:38;17.10;99.90
12578;DHT22;6354;51.026;8.968;2022-10-16T15:58:07;17.00;99.90
12578;DHT22;6354;51.026;8.968;2022-10-16T16:00:35;17.00;99.90
12578;DHT22;6354;51.026;8.968;2022-10-16T16:03:04;17.00;99.90
12578;DHT22;6354;51.026;8.968;2022-10-16T16:05:32;17.00;99.90
12578;DHT22;6354;51.026;8.968;2022-10-16T16:08:02;17.00;99.90
12578;DHT22;6354;51.026;8.968;2022-10-16T16:10:30;16.90;99.90
12578;DHT22;6354;51.026;8.968;2022-10-16T16:12:58;16.90;99.90
12578;DHT22;6354;51.026;8.968;2022-10-16T16:15:27;16.90;99.90
12578;DHT22;6354;51.026;8.968;2022-10-16T16:17:55;16.90;99.90
12578;DHT22;6354;51.026;8.968;2022-10-16T16:20:23;16.80;99.90
12578;DHT22;6354;51.026;8.968;2022-10-16T16:22:51;16.80;99.90